createdAt,value
2023-01-28T00:02:08.623Z,14.50
2023-01-28T00:04:35.646Z,12.50
2023-01-28T00:07:02.817Z,13.27
2023-01-28T00:09:29.938Z,13.82
2023-01-28T00:11:57.155Z,13.43
2023-01-28T00:14:24.394Z,13.30
2023-01-28T00:16:51.555Z,14.27
2023-01-28T00:19:18.569Z,12.80
2023-01-28T00:21:45.646Z,14.23
2023-01-28T00:24:12.875Z,12.13
2023-01-28T00:26:39.950Z,12.88
2023-01-28T00:29:07.217Z,12.20
2023-01-28T00:31:35.502Z,10.43
2023-01-28T00:34:02.772Z,9.57
2023-01-28T00:36:29.831Z,7.88
2023-01-28T00:38:59.009Z,5.50
2023-01-28T00:41:28.981Z,6.57
2023-01-28T00:43:56.473Z,5.40
2023-01-28T00:46:25.412Z,5.57
2023-01-28T00:48:52.668Z,7.03
2023-01-28T00:51:20.790Z,5.72
2023-01-28T00:53:47.964Z,6.40
2023-01-28T00:56:16.949Z,8.00
2023-01-28T00:58:45.419Z,6.00
2023-01-28T01:01:19.493Z,6.07
2023-01-28T01:04:02.469Z,6.20
2023-01-28T01:06:31.636Z,6.57
2023-01-28T01:08:58.824Z,5.82
2023-01-28T01:11:26.283Z,5.47
2023-01-28T01:13:55.575Z,6.15
2023-01-28T01:16:25.288Z,7.10
2023-01-28T01:18:53.663Z,5.47
2023-01-28T01:21:24.128Z,5.30
2023-01-28T01:23:52.522Z,5.25
2023-01-28T01:26:19.991Z,5.00
2023-01-28T01:28:48.249Z,4.93
2023-01-28T01:31:18.249Z,5.72
2023-01-28T01:33:48.344Z,5.88
2023-01-28T01:36:17.382Z,5.53
2023-01-28T01:38:44.625Z,6.72
2023-01-28T01:41:24.941Z,5.47
2023-01-28T01:43:56.812Z,5.85
2023-01-28T01:46:39.230Z,5.93
2023-01-28T01:49:15.153Z,7.95
2023-01-28T01:51:43.928Z,9.88
2023-01-28T01:54:11.280Z,6.72
2023-01-28T01:56:43.048Z,7.63
2023-01-28T01:59:14.965Z,7.93
2023-01-28T02:01:45.754Z,6.35
2023-01-28T02:04:19.910Z,5.55
2023-01-28T02:06:48.158Z,6.63
2023-01-28T02:09:30.570Z,6.43
2023-01-28T02:12:02.414Z,5.78
2023-01-28T02:14:35.275Z,6.13
2023-01-28T02:17:23.046Z,6.00
2023-01-28T02:19:57.475Z,5.95
2023-01-28T02:22:38.428Z,6.13
2023-01-28T02:25:53.750Z,7.70
2023-01-28T02:28:27.918Z,5.65
2023-01-28T02:31:02.310Z,6.53
2023-01-28T02:33:55.234Z,6.00
2023-01-28T02:36:25.377Z,7.05
2023-01-28T02:38:54.479Z,7.78
2023-01-28T02:41:32.043Z,9.00
2023-01-28T02:44:03.020Z,8.23
2023-01-28T02:46:48.544Z,9.48
2023-01-28T02:49:20.144Z,9.48
2023-01-28T02:52:12.264Z,8.63
2023-01-28T02:55:08.768Z,8.52
2023-01-28T02:57:38.941Z,7.65
2023-01-28T03:00:25.969Z,7.45
2023-01-28T03:03:27.032Z,8.32
2023-01-28T03:06:09.128Z,7.45
2023-01-28T03:09:06.835Z,7.50
2023-01-28T03:11:59.585Z,7.63
2023-01-28T03:14:46.287Z,9.63
2023-01-28T03:17:37.887Z,10.20
2023-01-28T03:20:24.239Z,9.52
2023-01-28T03:23:15.616Z,8.45
2023-01-28T03:26:05.809Z,8.23
2023-01-28T03:28:54.343Z,7.38
2023-01-28T03:31:42.487Z,8.45
2023-01-28T03:34:30.203Z,9.75
2023-01-28T03:36:57.680Z,8.73
2023-01-28T03:39:27.733Z,9.48
2023-01-28T03:42:13.850Z,8.98
2023-01-28T03:44:53.266Z,10.43
2023-01-28T03:47:23.348Z,9.30
2023-01-28T03:49:53.018Z,8.98
2023-01-28T03:52:32.233Z,10.68
2023-01-28T03:54:59.715Z,10.50
2023-01-28T03:57:28.661Z,10.25
2023-01-28T03:59:55.767Z,11.27
2023-01-28T04:02:23.860Z,12.48
2023-01-28T04:04:50.881Z,12.60
2023-01-28T04:07:18.526Z,12.68
2023-01-28T04:09:45.552Z,12.65
2023-01-28T04:12:12.593Z,12.38
2023-01-28T04:14:40.389Z,14.07
2023-01-28T04:17:10.862Z,12.93
2023-01-28T04:19:40.458Z,14.23
2023-01-28T04:22:10.358Z,13.23
2023-01-28T04:24:37.396Z,12.52
2023-01-28T04:27:04.713Z,12.90
2023-01-28T04:29:32.001Z,12.40
2023-01-28T04:31:59.015Z,14.60
2023-01-28T04:34:26.086Z,13.32
2023-01-28T04:36:53.088Z,15.50
2023-01-28T04:39:20.106Z,13.07
2023-01-28T04:41:47.213Z,12.52
2023-01-28T04:44:14.546Z,14.10
2023-01-28T04:46:41.608Z,14.13
2023-01-28T04:49:08.746Z,12.40
2023-01-28T04:51:35.910Z,12.18
2023-01-28T04:54:02.979Z,10.65
2023-01-28T04:56:30.120Z,10.45
2023-01-28T04:58:57.231Z,11.98
2023-01-28T05:01:25.213Z,11.63
2023-01-28T05:03:52.594Z,11.07
2023-01-28T05:06:19.666Z,11.00
2023-01-28T05:08:46.901Z,10.68
2023-01-28T05:11:14.406Z,11.60
2023-01-28T05:13:42.690Z,10.88
2023-01-28T05:16:09.840Z,11.77
2023-01-28T05:18:37.226Z,9.65
2023-01-28T05:21:04.603Z,10.93
2023-01-28T05:23:31.750Z,9.70
2023-01-28T05:25:58.841Z,8.85
2023-01-28T05:28:25.927Z,9.45
2023-01-28T05:30:52.987Z,8.68
2023-01-28T05:33:21.272Z,8.80
2023-01-28T05:35:49.742Z,9.00
2023-01-28T05:38:17.475Z,9.15
2023-01-28T05:40:44.869Z,8.98
2023-01-28T05:43:11.929Z,9.15
2023-01-28T05:45:39.460Z,9.10
2023-01-28T05:48:06.778Z,8.77
2023-01-28T05:50:34.048Z,8.85
2023-01-28T05:53:01.126Z,8.38
2023-01-28T05:55:28.224Z,9.85
2023-01-28T05:57:55.354Z,9.60
2023-01-28T06:00:23.728Z,9.27
2023-01-28T06:02:53.907Z,9.23
2023-01-28T06:05:21.236Z,10.43
2023-01-28T06:07:48.742Z,9.70
2023-01-28T06:10:18.242Z,10.18
2023-01-28T06:12:45.353Z,8.90
2023-01-28T06:15:12.713Z,8.75
2023-01-28T06:17:41.819Z,9.95
2023-01-28T06:20:09.977Z,10.88
2023-01-28T06:22:37.028Z,11.02
2023-01-28T06:25:04.483Z,11.23
2023-01-28T06:27:31.628Z,12.05
2023-01-28T06:29:58.790Z,16.15
2023-01-28T06:32:25.892Z,10.57
2023-01-28T06:34:53.231Z,15.65
2023-01-28T06:37:20.639Z,13.10
2023-01-28T06:39:47.742Z,16.88
2023-01-28T06:42:14.808Z,15.23
2023-01-28T06:44:41.851Z,14.80
2023-01-28T06:47:09.859Z,19.92
2023-01-28T06:49:38.035Z,14.48
2023-01-28T06:52:05.296Z,21.40
2023-01-28T06:54:32.396Z,18.75
2023-01-28T06:56:59.472Z,19.02
2023-01-28T06:59:27.182Z,18.95
2023-01-28T07:01:54.365Z,21.88
2023-01-28T07:04:21.424Z,17.88
2023-01-28T07:06:48.606Z,21.15
2023-01-28T07:09:15.679Z,24.25
2023-01-28T07:11:42.795Z,20.65
2023-01-28T07:14:10.095Z,21.83
2023-01-28T07:16:37.251Z,21.92
2023-01-28T07:19:04.392Z,24.88
2023-01-28T07:21:31.554Z,22.05
2023-01-28T07:24:00.197Z,20.50
2023-01-28T07:26:27.362Z,18.27
2023-01-28T07:28:54.428Z,22.02
2023-01-28T07:31:21.648Z,21.20
2023-01-28T07:33:48.725Z,19.20
2023-01-28T07:36:15.735Z,18.50
2023-01-28T07:38:42.894Z,18.02
2023-01-28T07:41:10.180Z,16.00
2023-01-28T07:43:37.280Z,20.95
2023-01-28T07:46:04.772Z,20.60
2023-01-28T07:48:32.019Z,19.92
2023-01-28T07:51:00.189Z,18.98
2023-01-28T07:53:27.351Z,15.98
2023-01-28T07:56:00.816Z,17.33
2023-01-28T07:58:28.383Z,14.73
2023-01-28T08:00:59.288Z,17.02
2023-01-28T08:03:27.208Z,15.13
2023-01-28T08:05:56.418Z,19.15
2023-01-28T08:08:24.899Z,12.45
2023-01-28T08:10:52.699Z,15.65
2023-01-28T08:13:20.249Z,13.95
2023-01-28T08:15:47.581Z,19.60
2023-01-28T08:18:16.674Z,17.02
2023-01-28T08:20:45.117Z,13.80
2023-01-28T08:23:15.147Z,15.13
2023-01-28T08:25:42.646Z,16.10
2023-01-28T08:28:10.177Z,15.30
2023-01-28T08:30:39.160Z,14.98
2023-01-28T08:33:09.022Z,17.30
2023-01-28T08:35:36.934Z,22.15
2023-01-28T08:38:05.733Z,19.08
2023-01-28T08:40:33.283Z,17.50
2023-01-28T08:43:00.701Z,16.67
2023-01-28T08:45:28.994Z,18.58
2023-01-28T08:48:04.816Z,19.48
2023-01-28T08:50:34.948Z,18.00
2023-01-28T08:53:05.097Z,17.48
2023-01-28T08:55:33.245Z,17.98
2023-01-28T08:58:10.071Z,15.35
2023-01-28T09:00:37.268Z,18.30
2023-01-28T09:03:06.261Z,18.45
2023-01-28T09:05:35.986Z,15.50
2023-01-28T09:08:08.668Z,19.45
2023-01-28T09:10:37.746Z,21.27
2023-01-28T09:13:09.592Z,23.25
2023-01-28T09:15:37.875Z,20.85
2023-01-28T09:18:05.570Z,18.17
2023-01-28T09:20:33.420Z,17.90
2023-01-28T09:23:01.619Z,19.40
2023-01-28T09:25:29.199Z,19.45
2023-01-28T09:27:57.352Z,18.25
2023-01-28T09:30:26.345Z,18.20
2023-01-28T09:32:54.480Z,20.63
2023-01-28T09:35:22.445Z,20.45
2023-01-28T09:37:49.580Z,19.35
2023-01-28T09:40:28.664Z,22.45
2023-01-28T09:43:18.213Z,21.20
2023-01-28T09:45:48.803Z,20.98
2023-01-28T09:48:24.429Z,22.13
2023-01-28T09:50:54.889Z,21.77
2023-01-28T09:53:21.956Z,23.83
2023-01-28T09:56:03.748Z,24.27
2023-01-28T09:58:31.846Z,20.70
2023-01-28T10:01:57.825Z,24.92
2023-01-28T10:04:40.295Z,23.02
2023-01-28T10:07:45.243Z,23.38
2023-01-28T10:10:26.424Z,21.65
2023-01-28T10:13:23.155Z,26.02
2023-01-28T10:16:08.793Z,22.35
2023-01-28T10:18:46.566Z,26.08
2023-01-28T10:21:22.721Z,24.85
2023-01-28T10:24:15.603Z,24.85
2023-01-28T10:26:44.458Z,24.33
2023-01-28T10:29:24.625Z,26.63
2023-01-28T10:32:21.134Z,27.10
2023-01-28T10:34:48.359Z,27.35
2023-01-28T10:37:16.437Z,24.88
2023-01-28T10:39:44.626Z,23.55
2023-01-28T10:42:29.184Z,24.88
2023-01-28T10:45:33.226Z,22.42
2023-01-28T10:48:24.629Z,24.70
2023-01-28T10:50:59.720Z,23.88
2023-01-28T10:53:41.648Z,24.85
2023-01-28T10:56:10.625Z,26.52
2023-01-28T10:59:18.180Z,24.55
2023-01-28T11:01:49.853Z,27.02
2023-01-28T11:04:28.332Z,24.83
2023-01-28T11:07:02.078Z,24.27
2023-01-28T11:09:32.330Z,25.92
2023-01-28T11:12:12.284Z,25.60
2023-01-28T11:14:44.109Z,26.85
2023-01-28T11:17:17.604Z,26.70
2023-01-28T11:19:45.612Z,26.02
2023-01-28T11:22:36.882Z,26.15
2023-01-28T11:25:15.162Z,24.95
2023-01-28T11:27:51.450Z,29.25
2023-01-28T11:30:25.983Z,27.88
2023-01-28T11:33:16.392Z,28.50
2023-01-28T11:35:52.640Z,25.70
2023-01-28T11:38:23.225Z,33.92
2023-01-28T11:40:55.065Z,34.70
2023-01-28T11:43:27.296Z,32.30
2023-01-28T11:46:07.061Z,32.05
2023-01-28T11:48:48.947Z,29.58
2023-01-28T11:51:27.743Z,32.97
2023-01-28T11:54:32.999Z,32.50
2023-01-28T11:57:03.291Z,30.17
2023-01-28T11:59:57.451Z,34.67
2023-01-28T12:02:45.114Z,31.40
2023-01-28T12:05:30.618Z,30.80
2023-01-28T12:08:06.972Z,31.13
2023-01-28T12:11:00.975Z,33.83
2023-01-28T12:13:37.329Z,33.22
2023-01-28T12:16:23.925Z,33.85
2023-01-28T12:19:03.524Z,31.45
2023-01-28T12:21:39.662Z,31.67
2023-01-28T12:24:31.047Z,31.65
2023-01-28T12:27:12.753Z,33.03
2023-01-28T12:29:58.953Z,31.77
2023-01-28T12:32:59.683Z,32.88
2023-01-28T12:35:51.356Z,28.15
2023-01-28T12:38:47.374Z,29.30
2023-01-28T12:41:19.139Z,31.10
2023-01-28T12:43:57.092Z,31.15
2023-01-28T12:46:55.763Z,30.27
2023-01-28T12:49:48.463Z,33.28
2023-01-28T12:52:24.168Z,28.08
2023-01-28T12:55:12.983Z,36.05
2023-01-28T12:57:41.105Z,31.83
2023-01-28T13:00:27.473Z,31.45
2023-01-28T13:03:06.945Z,31.85
2023-01-28T13:05:39.630Z,33.00
2023-01-28T13:08:22.787Z,31.25
2023-01-28T13:13:38.635Z,31.90
2023-01-28T13:16:09.030Z,31.67
2023-01-28T13:18:45.467Z,29.63
2023-01-28T13:21:17.222Z,31.15
2023-01-28T13:23:46.847Z,30.70
2023-01-28T13:26:19.883Z,28.80
2023-01-28T13:28:48.912Z,30.77
2023-01-28T13:31:22.135Z,23.63
2023-01-28T13:33:55.178Z,25.35
2023-01-28T13:39:18.079Z,26.17
2023-01-28T13:41:50.648Z,20.75
2023-01-28T13:44:26.443Z,23.38
2023-01-28T13:47:07.492Z,24.83
2023-01-28T13:49:51.049Z,23.13
2023-01-28T13:52:28.813Z,22.25
2023-01-28T13:55:13.867Z,25.58
2023-01-28T13:58:02.670Z,22.60
2023-01-28T14:00:48.399Z,23.35
2023-01-28T14:03:24.175Z,28.50
2023-01-28T14:06:06.432Z,26.45
2023-01-28T14:08:51.657Z,30.00
2023-01-28T14:11:52.789Z,27.42
2023-01-28T14:14:55.158Z,26.38
2023-01-28T14:17:52.244Z,27.67
2023-01-28T14:20:37.767Z,24.08
2023-01-28T14:23:14.564Z,26.48
2023-01-28T14:26:00.962Z,27.52
2023-01-28T14:28:57.124Z,26.10
2023-01-28T14:31:34.146Z,23.58
2023-01-28T14:34:11.514Z,27.95
2023-01-28T14:36:41.191Z,24.90
2023-01-28T14:39:20.400Z,28.95
2023-01-28T14:41:50.983Z,26.63
2023-01-28T14:44:25.531Z,27.90
2023-01-28T14:46:59.504Z,26.40
2023-01-28T14:49:55.394Z,28.45
2023-01-28T14:52:45.335Z,26.83
2023-01-28T14:55:43.395Z,27.92
2023-01-28T14:58:17.877Z,26.90
2023-01-28T15:00:55.005Z,23.63
2023-01-28T15:03:25.353Z,25.77
2023-01-28T15:06:12.647Z,27.65
2023-01-28T15:08:40.491Z,26.33
2023-01-28T15:11:11.499Z,33.58
2023-01-28T15:14:02.111Z,28.58
2023-01-28T15:16:32.836Z,24.88
2023-01-28T15:19:01.830Z,24.45
2023-01-28T15:21:30.476Z,24.00
2023-01-28T15:24:00.578Z,26.20
2023-01-28T15:26:31.016Z,23.70
2023-01-28T15:28:58.182Z,23.08
2023-01-28T15:31:32.831Z,24.38
2023-01-28T15:34:14.979Z,27.10
2023-01-28T15:36:43.224Z,27.85
2023-01-28T15:39:21.768Z,23.83
2023-01-28T15:42:02.332Z,26.20
2023-01-28T15:44:39.822Z,24.23
2023-01-28T15:47:17.304Z,24.17
2023-01-28T15:49:48.748Z,27.30
2023-01-28T15:52:16.145Z,24.42
2023-01-28T15:54:47.661Z,27.70
2023-01-28T15:57:22.918Z,26.58
2023-01-28T15:59:51.457Z,25.35
2023-01-28T16:02:23.198Z,22.75
2023-01-28T16:05:01.224Z,22.95
2023-01-28T16:07:30.668Z,24.30
2023-01-28T16:10:00.607Z,24.88
2023-01-28T16:12:28.611Z,23.08
2023-01-28T16:14:58.640Z,21.95
2023-01-28T16:17:31.079Z,25.27
2023-01-28T16:20:02.570Z,23.70
2023-01-28T16:22:35.413Z,21.63
2023-01-28T16:25:03.879Z,22.48
2023-01-28T16:27:34.697Z,25.40
2023-01-28T16:30:01.924Z,23.70
2023-01-28T16:32:33.770Z,22.33
2023-01-28T16:35:01.370Z,24.70
2023-01-28T16:37:30.983Z,29.35
2023-01-28T16:40:00.293Z,23.40
2023-01-28T16:42:32.551Z,30.23
2023-01-28T16:44:59.634Z,27.95
2023-01-28T16:47:26.870Z,32.55
2023-01-28T16:49:53.967Z,29.52
2023-01-28T16:52:21.168Z,33.80
2023-01-28T16:54:48.390Z,36.00
2023-01-28T16:57:21.978Z,44.78
2023-01-28T16:59:49.301Z,42.50
2023-01-28T17:02:17.973Z,41.63
2023-01-28T17:04:45.670Z,45.25
2023-01-28T17:07:12.809Z,40.55
2023-01-28T17:09:39.822Z,34.80
2023-01-28T17:12:07.696Z,36.95
2023-01-28T17:14:35.018Z,36.80
2023-01-28T17:17:02.065Z,31.20
2023-01-28T17:19:29.166Z,33.60
2023-01-28T17:21:56.238Z,30.20
2023-01-28T17:24:23.372Z,37.15
2023-01-28T17:26:54.276Z,31.83
2023-01-28T17:29:21.323Z,31.25
2023-01-28T17:31:48.679Z,28.67
2023-01-28T17:34:15.781Z,31.02
2023-01-28T17:36:42.803Z,32.88
2023-01-28T17:39:10.060Z,39.90
2023-01-28T17:41:37.257Z,36.47
2023-01-28T17:44:04.697Z,35.42
2023-01-28T17:46:32.300Z,37.53
2023-01-28T17:48:59.574Z,36.60
2023-01-28T17:51:26.710Z,35.55
2023-01-28T17:53:54.319Z,38.55
2023-01-28T17:56:23.571Z,44.55
2023-01-28T17:58:56.385Z,39.70
2023-01-28T18:01:25.288Z,39.03
2023-01-28T18:03:52.722Z,39.05
2023-01-28T18:06:19.933Z,37.03
2023-01-28T18:08:47.221Z,37.00
2023-01-28T18:11:18.909Z,38.05
2023-01-28T18:13:46.453Z,36.88
2023-01-28T18:16:16.331Z,35.78
2023-01-28T18:18:44.550Z,38.45
2023-01-28T18:21:34.747Z,33.90
2023-01-28T18:24:07.755Z,38.03
2023-01-28T18:26:34.903Z,33.22
2023-01-28T18:29:02.197Z,32.40
2023-01-28T18:31:29.340Z,33.15
2023-01-28T18:33:57.511Z,32.25
2023-01-28T18:36:24.699Z,34.42
2023-01-28T18:38:52.885Z,32.28
2023-01-28T18:41:20.054Z,32.42
2023-01-28T18:43:47.143Z,36.20
2023-01-28T18:46:18.024Z,33.15
2023-01-28T18:48:45.447Z,36.08
2023-01-28T18:51:28.504Z,30.60
2023-01-28T18:54:02.251Z,38.75
2023-01-28T18:56:30.561Z,36.28
2023-01-28T18:59:02.989Z,42.53
2023-01-28T19:01:31.212Z,37.58
2023-01-28T19:03:59.371Z,35.88
2023-01-28T19:06:28.296Z,41.28
2023-01-28T19:09:01.091Z,36.22
2023-01-28T19:11:30.358Z,39.88
2023-01-28T19:13:58.039Z,37.58
2023-01-28T19:16:25.879Z,34.55
2023-01-28T19:18:58.299Z,36.65
2023-01-28T19:21:26.873Z,33.78
2023-01-28T19:24:01.249Z,36.45
2023-01-28T19:26:31.089Z,40.95
2023-01-28T19:28:58.833Z,35.50
2023-01-28T19:31:26.798Z,38.40
2023-01-28T19:33:59.153Z,38.47
2023-01-28T19:36:28.511Z,40.05
2023-01-28T19:39:02.678Z,37.85
2023-01-28T19:41:30.716Z,35.55
2023-01-28T19:43:58.526Z,37.60
2023-01-28T19:46:26.552Z,35.78
2023-01-28T19:48:54.247Z,36.22
2023-01-28T19:51:21.993Z,36.30
2023-01-28T19:53:54.346Z,38.72
2023-01-28T19:56:23.424Z,37.40
2023-01-28T19:58:52.723Z,37.55
2023-01-28T20:01:24.809Z,36.97
2023-01-28T20:03:54.823Z,37.13
2023-01-28T20:06:23.957Z,34.58
2023-01-28T20:08:54.018Z,37.78
2023-01-28T20:11:22.096Z,42.60
2023-01-28T20:13:50.339Z,37.90
2023-01-28T20:16:29.131Z,40.63
2023-01-28T20:18:59.415Z,44.30
2023-01-28T20:21:30.951Z,41.53
2023-01-28T20:24:00.300Z,43.50
2023-01-28T20:26:33.198Z,45.13
2023-01-28T20:31:49.630Z,38.25
2023-01-28T20:34:21.385Z,39.30
2023-01-28T20:36:48.443Z,41.55
2023-01-28T20:39:15.803Z,42.03
2023-01-28T20:41:43.096Z,42.13
2023-01-28T20:44:10.288Z,41.03
2023-01-28T20:46:39.016Z,41.08
2023-01-28T20:49:06.927Z,43.42
2023-01-28T20:51:35.829Z,42.88
2023-01-28T20:54:03.549Z,39.72
2023-01-28T20:56:31.579Z,44.30
2023-01-28T20:59:02.433Z,44.50
2023-01-28T21:01:34.148Z,43.78
2023-01-28T21:04:01.736Z,46.63
2023-01-28T21:06:29.485Z,42.15
2023-01-28T21:08:57.403Z,40.78
2023-01-28T21:11:25.951Z,45.47
2023-01-28T21:13:54.041Z,39.72
2023-01-28T21:16:21.678Z,44.70
2023-01-28T21:18:49.241Z,40.67
2023-01-28T21:21:27.733Z,44.22
2023-01-28T21:23:57.935Z,47.47
2023-01-28T21:26:25.978Z,45.05
2023-01-28T21:28:53.138Z,40.08
2023-01-28T21:31:22.645Z,41.13
2023-01-28T21:33:55.304Z,45.72
2023-01-28T21:36:23.119Z,48.65
2023-01-28T21:38:55.491Z,43.92
2023-01-28T21:41:22.960Z,47.67
2023-01-28T21:43:53.567Z,46.20
2023-01-28T21:46:22.036Z,45.97
2023-01-28T21:48:49.308Z,46.95
2023-01-28T21:51:35.021Z,47.03
2023-01-28T21:54:04.067Z,43.22
2023-01-28T21:56:31.255Z,42.20
2023-01-28T21:59:16.837Z,41.47
2023-01-28T22:01:45.001Z,43.25
2023-01-28T22:04:13.069Z,45.05
2023-01-28T22:06:42.324Z,46.70
2023-01-28T22:09:13.842Z,42.67
2023-01-28T22:11:42.419Z,47.40
2023-01-28T22:14:09.729Z,44.38
2023-01-28T22:16:37.138Z,46.33
2023-01-28T22:19:04.632Z,45.88
2023-01-28T22:21:31.724Z,44.03
2023-01-28T22:23:58.869Z,49.28
2023-01-28T22:26:25.968Z,46.05
2023-01-28T22:28:53.069Z,46.08
2023-01-28T22:31:20.289Z,45.97
2023-01-28T22:33:47.408Z,48.33
2023-01-28T22:36:16.583Z,53.25
2023-01-28T22:38:45.349Z,50.78
2023-01-28T22:41:22.903Z,51.10
2023-01-28T22:43:51.421Z,46.65
2023-01-28T22:46:20.380Z,45.97
2023-01-28T22:48:47.957Z,44.60
2023-01-28T22:51:21.080Z,48.30
2023-01-28T22:53:49.386Z,48.50
2023-01-28T22:56:18.229Z,52.83
2023-01-28T22:58:45.590Z,49.35
2023-01-28T23:01:15.648Z,46.58
2023-01-28T23:03:47.467Z,45.92
2023-01-28T23:06:17.198Z,46.22
2023-01-28T23:08:44.547Z,48.80
2023-01-28T23:11:15.280Z,49.22
2023-01-28T23:14:02.376Z,47.17
2023-01-28T23:16:49.364Z,46.83
2023-01-28T23:19:35.423Z,51.42
2023-01-28T23:22:21.184Z,43.92
2023-01-28T23:24:48.496Z,47.97
2023-01-28T23:27:15.929Z,43.83
2023-01-28T23:29:42.981Z,42.05
2023-01-28T23:32:11.512Z,41.75
2023-01-28T23:34:44.733Z,42.17
2023-01-28T23:37:15.201Z,40.63
2023-01-28T23:39:43.215Z,37.45
2023-01-28T23:42:18.970Z,40.42
2023-01-28T23:44:46.465Z,37.85
2023-01-28T23:47:14.111Z,38.28
2023-01-28T23:49:41.634Z,41.50
2023-01-28T23:52:09.193Z,48.00
2023-01-28T23:54:36.747Z,45.38
2023-01-28T23:57:05.104Z,46.20
2023-01-28T23:59:32.291Z,51.10
